sensor_id;sensor_type;location;lat;lon;timestamp;P1;durP1;ratioP1;P2;durP2;ratioP2
62554;SDS011;48610;52.144;8.624;2023-05-31T00:02:48;9.25;;;6.55;;
62554;SDS011;48610;52.144;8.624;2023-05-31T00:05:49;10.73;;;5.97;;
62554;SDS011;48610;52.144;8.624;2023-05-31T00:08:49;8.73;;;6.40;;
62554;SDS011;48610;52.144;8.624;2023-05-31T00:11:50;10.40;;;6.57;;
62554;SDS011;48610;52.144;8.624;2023-05-31T00:14:50;11.20;;;6.75;;
62554;SDS011;48610;52.144;8.624;2023-05-31T00:17:51;11.77;;;6.70;;
62554;SDS011;48610;52.144;8.624;2023-05-31T00:20:51;9.98;;;6.80;;
62554;SDS011;48610;52.144;8.624;2023-05-31T00:23:52;15.52;;;7.43;;
62554;SDS011;48610;52.144;8.624;2023-05-31T00:26:52;10.90;;;6.95;;
62554;SDS011;48610;52.144;8.624;2023-05-31T00:29:53;11.00;;;6.63;;
62554;SDS011;48610;52.144;8.624;2023-05-31T00:32:53;10.77;;;6.55;;
62554;SDS011;48610;52.144;8.624;2023-05-31T00:35:54;8.68;;;6.95;;
62554;SDS011;48610;52.144;8.624;2023-05-31T00:38:54;11.35;;;6.85;;
62554;SDS011;48610;52.144;8.624;2023-05-31T00:41:55;10.63;;;7.07;;
62554;SDS011;48610;52.144;8.624;2023-05-31T00:44:56;12.90;;;7.40;;
62554;SDS011;48610;52.144;8.624;2023-05-31T00:47:56;12.25;;;7.30;;
62554;SDS011;48610;52.144;8.624;2023-05-31T00:50:57;10.48;;;7.07;;
62554;SDS011;48610;52.144;8.624;2023-05-31T00:53:58;14.27;;;7.32;;
62554;SDS011;48610;52.144;8.624;2023-05-31T00:56:59;13.40;;;7.60;;
62554;SDS011;48610;52.144;8.624;2023-05-31T01:00:01;12.50;;;7.22;;
62554;SDS011;48610;52.144;8.624;2023-05-31T01:03:03;15.82;;;7.90;;
62554;SDS011;48610;52.144;8.624;2023-05-31T01:06:04;11.05;;;7.60;;
62554;SDS011;48610;52.144;8.624;2023-05-31T01:09:05;16.48;;;7.55;;
62554;SDS011;48610;52.144;8.624;2023-05-31T01:15:10;15.00;;;7.95;;
62554;SDS011;48610;52.144;8.624;2023-05-31T01:18:18;13.85;;;7.63;;
62554;SDS011;48610;52.144;8.624;2023-05-31T01:21:37;15.55;;;7.65;;
62554;SDS011;48610;52.144;8.624;2023-05-31T01:25:12;16.00;;;7.53;;
62554;SDS011;48610;52.144;8.624;2023-05-31T01:28:19;12.55;;;7.28;;
62554;SDS011;48610;52.144;8.624;2023-05-31T01:31:23;16.33;;;7.32;;
62554;SDS011;48610;52.144;8.624;2023-05-31T01:34:24;11.88;;;7.15;;
62554;SDS011;48610;52.144;8.624;2023-05-31T01:37:25;16.77;;;7.00;;
62554;SDS011;48610;52.144;8.624;2023-05-31T01:40:25;12.18;;;6.88;;
62554;SDS011;48610;52.144;8.624;2023-05-31T01:43:26;14.43;;;7.03;;
62554;SDS011;48610;52.144;8.624;2023-05-31T01:46:28;11.82;;;6.93;;
62554;SDS011;48610;52.144;8.624;2023-05-31T01:49:28;13.63;;;7.25;;
62554;SDS011;48610;52.144;8.624;2023-05-31T01:52:29;11.90;;;7.25;;
62554;SDS011;48610;52.144;8.624;2023-05-31T01:55:30;12.77;;;6.90;;
62554;SDS011;48610;52.144;8.624;2023-05-31T01:58:31;11.80;;;7.30;;
62554;SDS011;48610;52.144;8.624;2023-05-31T02:01:36;13.00;;;7.70;;
62554;SDS011;48610;52.144;8.624;2023-05-31T02:04:37;10.50;;;7.45;;
62554;SDS011;48610;52.144;8.624;2023-05-31T02:07:41;17.50;;;7.10;;
62554;SDS011;48610;52.144;8.624;2023-05-31T02:10:47;12.77;;;7.18;;
62554;SDS011;48610;52.144;8.624;2023-05-31T02:13:47;13.88;;;6.32;;
62554;SDS011;48610;52.144;8.624;2023-05-31T02:16:48;12.13;;;6.90;;
62554;SDS011;48610;52.144;8.624;2023-05-31T02:19:52;9.27;;;6.55;;
62554;SDS011;48610;52.144;8.624;2023-05-31T02:22:53;10.38;;;6.57;;
62554;SDS011;48610;52.144;8.624;2023-05-31T02:25:53;19.50;;;7.75;;
62554;SDS011;48610;52.144;8.624;2023-05-31T02:28:55;13.68;;;7.30;;
62554;SDS011;48610;52.144;8.624;2023-05-31T02:31:55;13.57;;;7.43;;
62554;SDS011;48610;52.144;8.624;2023-05-31T02:34:56;14.05;;;7.03;;
62554;SDS011;48610;52.144;8.624;2023-05-31T02:37:56;11.57;;;7.10;;
62554;SDS011;48610;52.144;8.624;2023-05-31T02:40:57;17.75;;;7.78;;
62554;SDS011;48610;52.144;8.624;2023-05-31T02:43:57;12.13;;;7.03;;
62554;SDS011;48610;52.144;8.624;2023-05-31T02:46:58;13.20;;;7.18;;
62554;SDS011;48610;52.144;8.624;2023-05-31T02:49:58;52.45;;;9.82;;
62554;SDS011;48610;52.144;8.624;2023-05-31T02:52:59;50.67;;;9.23;;
62554;SDS011;48610;52.144;8.624;2023-05-31T02:56:06;39.97;;;8.50;;
62554;SDS011;48610;52.144;8.624;2023-05-31T02:59:08;17.63;;;7.40;;
62554;SDS011;48610;52.144;8.624;2023-05-31T03:02:08;12.27;;;5.95;;
62554;SDS011;48610;52.144;8.624;2023-05-31T03:05:09;14.00;;;7.65;;
62554;SDS011;48610;52.144;8.624;2023-05-31T03:08:10;13.88;;;7.93;;
62554;SDS011;48610;52.144;8.624;2023-05-31T03:11:10;15.02;;;8.35;;
62554;SDS011;48610;52.144;8.624;2023-05-31T03:14:11;11.77;;;7.35;;
62554;SDS011;48610;52.144;8.624;2023-05-31T03:17:12;11.65;;;7.53;;
62554;SDS011;48610;52.144;8.624;2023-05-31T03:20:12;18.00;;;8.10;;
62554;SDS011;48610;52.144;8.624;2023-05-31T03:23:13;13.65;;;7.80;;
62554;SDS011;48610;52.144;8.624;2023-05-31T03:26:13;13.68;;;8.95;;
62554;SDS011;48610;52.144;8.624;2023-05-31T03:29:14;20.52;;;8.15;;
62554;SDS011;48610;52.144;8.624;2023-05-31T03:32:15;12.98;;;7.70;;
62554;SDS011;48610;52.144;8.624;2023-05-31T03:35:15;17.80;;;7.97;;
62554;SDS011;48610;52.144;8.624;2023-05-31T03:38:16;16.85;;;8.68;;
62554;SDS011;48610;52.144;8.624;2023-05-31T03:41:16;13.70;;;8.05;;
62554;SDS011;48610;52.144;8.624;2023-05-31T03:44:17;15.15;;;7.78;;
62554;SDS011;48610;52.144;8.624;2023-05-31T03:47:18;13.50;;;7.68;;
62554;SDS011;48610;52.144;8.624;2023-05-31T03:50:18;14.73;;;8.05;;
62554;SDS011;48610;52.144;8.624;2023-05-31T03:53:19;16.42;;;8.18;;
62554;SDS011;48610;52.144;8.624;2023-05-31T03:56:19;13.18;;;7.28;;
62554;SDS011;48610;52.144;8.624;2023-05-31T03:59:20;13.48;;;7.93;;
62554;SDS011;48610;52.144;8.624;2023-05-31T04:02:21;12.55;;;8.13;;
62554;SDS011;48610;52.144;8.624;2023-05-31T04:05:21;13.95;;;7.53;;
62554;SDS011;48610;52.144;8.624;2023-05-31T04:08:22;17.58;;;7.57;;
62554;SDS011;48610;52.144;8.624;2023-05-31T04:11:23;15.20;;;7.78;;
62554;SDS011;48610;52.144;8.624;2023-05-31T04:14:23;16.35;;;8.63;;
62554;SDS011;48610;52.144;8.624;2023-05-31T04:17:24;17.70;;;7.95;;
62554;SDS011;48610;52.144;8.624;2023-05-31T04:20:24;13.98;;;8.07;;
62554;SDS011;48610;52.144;8.624;2023-05-31T04:23:25;18.67;;;8.32;;
62554;SDS011;48610;52.144;8.624;2023-05-31T04:26:26;15.52;;;8.85;;
62554;SDS011;48610;52.144;8.624;2023-05-31T04:29:27;24.70;;;8.82;;
62554;SDS011;48610;52.144;8.624;2023-05-31T04:32:27;20.63;;;9.00;;
62554;SDS011;48610;52.144;8.624;2023-05-31T04:35:28;22.02;;;9.45;;
62554;SDS011;48610;52.144;8.624;2023-05-31T04:38:30;14.73;;;8.75;;
62554;SDS011;48610;52.144;8.624;2023-05-31T04:41:32;14.57;;;8.00;;
62554;SDS011;48610;52.144;8.624;2023-05-31T04:44:33;15.27;;;8.75;;
62554;SDS011;48610;52.144;8.624;2023-05-31T04:47:33;17.80;;;8.30;;
62554;SDS011;48610;52.144;8.624;2023-05-31T04:50:34;18.20;;;8.70;;
62554;SDS011;48610;52.144;8.624;2023-05-31T04:53:34;18.92;;;9.13;;
62554;SDS011;48610;52.144;8.624;2023-05-31T04:56:35;16.98;;;9.02;;
62554;SDS011;48610;52.144;8.624;2023-05-31T04:59:36;16.77;;;9.00;;
62554;SDS011;48610;52.144;8.624;2023-05-31T05:02:36;16.55;;;9.40;;
62554;SDS011;48610;52.144;8.624;2023-05-31T05:05:37;20.35;;;9.15;;
62554;SDS011;48610;52.144;8.624;2023-05-31T05:08:38;15.05;;;9.10;;
62554;SDS011;48610;52.144;8.624;2023-05-31T05:11:38;16.83;;;9.25;;
62554;SDS011;48610;52.144;8.624;2023-05-31T05:14:39;18.23;;;9.43;;
62554;SDS011;48610;52.144;8.624;2023-05-31T05:17:40;21.92;;;8.70;;
62554;SDS011;48610;52.144;8.624;2023-05-31T05:20:41;18.42;;;9.25;;
62554;SDS011;48610;52.144;8.624;2023-05-31T05:23:42;16.88;;;9.13;;
62554;SDS011;48610;52.144;8.624;2023-05-31T05:26:43;14.27;;;8.90;;
62554;SDS011;48610;52.144;8.624;2023-05-31T05:29:44;21.00;;;10.10;;
62554;SDS011;48610;52.144;8.624;2023-05-31T05:32:45;17.38;;;9.05;;
62554;SDS011;48610;52.144;8.624;2023-05-31T05:35:46;16.05;;;8.65;;
62554;SDS011;48610;52.144;8.624;2023-05-31T05:38:47;24.75;;;9.52;;
62554;SDS011;48610;52.144;8.624;2023-05-31T05:41:47;19.73;;;8.45;;
62554;SDS011;48610;52.144;8.624;2023-05-31T05:44:48;22.35;;;9.27;;
62554;SDS011;48610;52.144;8.624;2023-05-31T05:47:48;20.48;;;8.85;;
62554;SDS011;48610;52.144;8.624;2023-05-31T05:50:49;18.00;;;8.70;;
62554;SDS011;48610;52.144;8.624;2023-05-31T05:53:50;16.48;;;8.02;;
62554;SDS011;48610;52.144;8.624;2023-05-31T05:56:50;17.05;;;8.10;;
62554;SDS011;48610;52.144;8.624;2023-05-31T05:59:51;14.93;;;8.50;;
62554;SDS011;48610;52.144;8.624;2023-05-31T06:02:52;23.73;;;8.43;;
62554;SDS011;48610;52.144;8.624;2023-05-31T06:05:53;17.40;;;8.05;;
62554;SDS011;48610;52.144;8.624;2023-05-31T06:08:53;17.02;;;7.78;;
62554;SDS011;48610;52.144;8.624;2023-05-31T06:11:54;14.35;;;7.78;;
62554;SDS011;48610;52.144;8.624;2023-05-31T06:14:54;16.35;;;8.40;;
62554;SDS011;48610;52.144;8.624;2023-05-31T06:17:55;16.25;;;8.45;;
62554;SDS011;48610;52.144;8.624;2023-05-31T06:20:55;16.15;;;7.97;;
62554;SDS011;48610;52.144;8.624;2023-05-31T06:23:56;17.42;;;7.43;;
62554;SDS011;48610;52.144;8.624;2023-05-31T06:26:56;14.63;;;8.10;;
62554;SDS011;48610;52.144;8.624;2023-05-31T06:29:57;13.75;;;7.65;;
62554;SDS011;48610;52.144;8.624;2023-05-31T06:32:58;17.52;;;8.05;;
62554;SDS011;48610;52.144;8.624;2023-05-31T06:35:59;10.85;;;7.35;;
62554;SDS011;48610;52.144;8.624;2023-05-31T06:38:59;13.98;;;7.20;;
62554;SDS011;48610;52.144;8.624;2023-05-31T06:42:00;15.05;;;7.40;;
62554;SDS011;48610;52.144;8.624;2023-05-31T06:45:01;14.57;;;6.88;;
62554;SDS011;48610;52.144;8.624;2023-05-31T06:48:02;19.75;;;7.32;;
62554;SDS011;48610;52.144;8.624;2023-05-31T06:51:03;15.88;;;6.90;;
62554;SDS011;48610;52.144;8.624;2023-05-31T06:54:03;16.63;;;6.95;;
62554;SDS011;48610;52.144;8.624;2023-05-31T06:57:04;12.60;;;7.05;;
62554;SDS011;48610;52.144;8.624;2023-05-31T07:00:05;14.27;;;6.53;;
62554;SDS011;48610;52.144;8.624;2023-05-31T07:03:10;19.30;;;6.90;;
62554;SDS011;48610;52.144;8.624;2023-05-31T07:06:11;13.00;;;6.88;;
62554;SDS011;48610;52.144;8.624;2023-05-31T07:09:11;12.00;;;6.80;;
62554;SDS011;48610;52.144;8.624;2023-05-31T07:12:12;11.23;;;6.43;;
62554;SDS011;48610;52.144;8.624;2023-05-31T07:15:12;11.52;;;6.20;;
62554;SDS011;48610;52.144;8.624;2023-05-31T07:18:13;9.20;;;6.15;;
62554;SDS011;48610;52.144;8.624;2023-05-31T07:21:13;13.00;;;6.80;;
62554;SDS011;48610;52.144;8.624;2023-05-31T07:24:14;12.80;;;6.60;;
62554;SDS011;48610;52.144;8.624;2023-05-31T07:27:15;12.65;;;5.88;;
62554;SDS011;48610;52.144;8.624;2023-05-31T07:30:15;13.38;;;6.22;;
62554;SDS011;48610;52.144;8.624;2023-05-31T07:33:16;16.17;;;5.97;;
62554;SDS011;48610;52.144;8.624;2023-05-31T07:36:17;14.25;;;6.28;;
62554;SDS011;48610;52.144;8.624;2023-05-31T07:39:20;14.57;;;6.90;;
62554;SDS011;48610;52.144;8.624;2023-05-31T07:42:21;11.25;;;6.90;;
62554;SDS011;48610;52.144;8.624;2023-05-31T07:45:22;10.30;;;5.78;;
62554;SDS011;48610;52.144;8.624;2023-05-31T07:48:23;11.75;;;5.68;;
62554;SDS011;48610;52.144;8.624;2023-05-31T07:51:24;9.93;;;5.40;;
62554;SDS011;48610;52.144;8.624;2023-05-31T07:54:24;9.75;;;5.47;;
62554;SDS011;48610;52.144;8.624;2023-05-31T07:57:25;12.82;;;5.95;;
62554;SDS011;48610;52.144;8.624;2023-05-31T08:00:25;10.45;;;5.43;;
62554;SDS011;48610;52.144;8.624;2023-05-31T08:03:26;13.20;;;5.57;;
62554;SDS011;48610;52.144;8.624;2023-05-31T08:06:27;11.95;;;5.75;;
62554;SDS011;48610;52.144;8.624;2023-05-31T08:09:27;13.05;;;5.18;;
62554;SDS011;48610;52.144;8.624;2023-05-31T08:12:28;11.85;;;5.07;;
62554;SDS011;48610;52.144;8.624;2023-05-31T08:15:28;11.85;;;4.80;;
62554;SDS011;48610;52.144;8.624;2023-05-31T08:18:29;16.58;;;5.95;;
62554;SDS011;48610;52.144;8.624;2023-05-31T08:21:29;10.23;;;5.07;;
62554;SDS011;48610;52.144;8.624;2023-05-31T08:24:31;12.70;;;5.22;;
62554;SDS011;48610;52.144;8.624;2023-05-31T08:27:31;11.32;;;5.18;;
62554;SDS011;48610;52.144;8.624;2023-05-31T08:30:32;10.07;;;4.07;;
62554;SDS011;48610;52.144;8.624;2023-05-31T08:33:33;6.55;;;4.45;;
62554;SDS011;48610;52.144;8.624;2023-05-31T08:36:33;7.53;;;4.47;;
62554;SDS011;48610;52.144;8.624;2023-05-31T08:39:34;7.35;;;3.85;;
62554;SDS011;48610;52.144;8.624;2023-05-31T08:45:54;7.57;;;3.83;;
62554;SDS011;48610;52.144;8.624;2023-05-31T08:48:57;10.43;;;3.70;;
62554;SDS011;48610;52.144;8.624;2023-05-31T08:52:03;7.88;;;3.60;;
62554;SDS011;48610;52.144;8.624;2023-05-31T08:55:07;6.72;;;3.65;;
62554;SDS011;48610;52.144;8.624;2023-05-31T08:58:08;12.65;;;3.83;;
62554;SDS011;48610;52.144;8.624;2023-05-31T09:01:10;7.78;;;3.70;;
62554;SDS011;48610;52.144;8.624;2023-05-31T09:04:11;6.53;;;3.40;;
62554;SDS011;48610;52.144;8.624;2023-05-31T09:07:13;9.63;;;3.55;;
62554;SDS011;48610;52.144;8.624;2023-05-31T09:10:14;10.05;;;3.80;;
62554;SDS011;48610;52.144;8.624;2023-05-31T09:13:16;8.27;;;3.20;;
62554;SDS011;48610;52.144;8.624;2023-05-31T09:16:16;8.00;;;3.47;;
62554;SDS011;48610;52.144;8.624;2023-05-31T09:19:17;9.20;;;3.38;;
62554;SDS011;48610;52.144;8.624;2023-05-31T09:22:18;9.70;;;3.20;;
62554;SDS011;48610;52.144;8.624;2023-05-31T09:25:20;5.07;;;3.22;;
62554;SDS011;48610;52.144;8.624;2023-05-31T09:28:21;9.23;;;3.33;;
62554;SDS011;48610;52.144;8.624;2023-05-31T09:31:22;11.50;;;3.65;;
62554;SDS011;48610;52.144;8.624;2023-05-31T09:34:26;9.57;;;3.45;;
62554;SDS011;48610;52.144;8.624;2023-05-31T09:37:29;7.88;;;3.05;;
62554;SDS011;48610;52.144;8.624;2023-05-31T09:40:30;7.78;;;3.35;;
62554;SDS011;48610;52.144;8.624;2023-05-31T09:43:34;8.52;;;3.50;;
62554;SDS011;48610;52.144;8.624;2023-05-31T09:46:39;13.13;;;3.05;;
62554;SDS011;48610;52.144;8.624;2023-05-31T09:49:39;6.43;;;3.20;;
62554;SDS011;48610;52.144;8.624;2023-05-31T09:52:46;8.82;;;4.20;;
62554;SDS011;48610;52.144;8.624;2023-05-31T09:55:49;9.35;;;3.83;;
62554;SDS011;48610;52.144;8.624;2023-05-31T09:58:50;7.57;;;3.90;;
62554;SDS011;48610;52.144;8.624;2023-05-31T10:01:51;11.07;;;4.32;;
62554;SDS011;48610;52.144;8.624;2023-05-31T10:04:53;18.83;;;3.80;;
62554;SDS011;48610;52.144;8.624;2023-05-31T10:07:55;7.90;;;3.65;;
62554;SDS011;48610;52.144;8.624;2023-05-31T10:10:56;8.40;;;3.65;;
62554;SDS011;48610;52.144;8.624;2023-05-31T10:13:59;11.10;;;3.78;;
62554;SDS011;48610;52.144;8.624;2023-05-31T10:17:10;10.88;;;3.88;;
62554;SDS011;48610;52.144;8.624;2023-05-31T10:20:15;7.07;;;3.38;;
62554;SDS011;48610;52.144;8.624;2023-05-31T10:23:19;5.45;;;3.17;;
62554;SDS011;48610;52.144;8.624;2023-05-31T10:26:22;15.70;;;3.42;;
62554;SDS011;48610;52.144;8.624;2023-05-31T10:29:27;7.53;;;3.53;;
62554;SDS011;48610;52.144;8.624;2023-05-31T10:32:33;11.05;;;3.50;;
62554;SDS011;48610;52.144;8.624;2023-05-31T10:35:41;7.53;;;3.45;;
62554;SDS011;48610;52.144;8.624;2023-05-31T10:38:50;8.95;;;3.08;;
62554;SDS011;48610;52.144;8.624;2023-05-31T10:41:58;11.38;;;3.90;;
62554;SDS011;48610;52.144;8.624;2023-05-31T10:48:30;8.88;;;3.40;;
62554;SDS011;48610;52.144;8.624;2023-05-31T10:51:50;11.07;;;3.30;;
62554;SDS011;48610;52.144;8.624;2023-05-31T10:54:51;7.55;;;3.40;;
62554;SDS011;48610;52.144;8.624;2023-05-31T10:57:52;6.50;;;3.40;;
62554;SDS011;48610;52.144;8.624;2023-05-31T11:00:55;7.80;;;3.10;;
62554;SDS011;48610;52.144;8.624;2023-05-31T11:03:57;13.10;;;3.90;;
62554;SDS011;48610;52.144;8.624;2023-05-31T11:10:25;6.13;;;3.05;;
62554;SDS011;48610;52.144;8.624;2023-05-31T11:13:27;8.93;;;3.42;;
62554;SDS011;48610;52.144;8.624;2023-05-31T11:20:06;8.85;;;3.47;;
62554;SDS011;48610;52.144;8.624;2023-05-31T11:26:28;9.93;;;3.20;;
62554;SDS011;48610;52.144;8.624;2023-05-31T11:35:54;7.32;;;3.30;;
62554;SDS011;48610;52.144;8.624;2023-05-31T11:38:55;8.55;;;3.17;;
62554;SDS011;48610;52.144;8.624;2023-05-31T11:41:57;7.45;;;2.85;;
62554;SDS011;48610;52.144;8.624;2023-05-31T11:45:08;6.13;;;2.83;;
62554;SDS011;48610;52.144;8.624;2023-05-31T11:51:43;7.65;;;2.95;;
62554;SDS011;48610;52.144;8.624;2023-05-31T11:54:45;5.80;;;2.78;;
62554;SDS011;48610;52.144;8.624;2023-05-31T11:57:48;7.45;;;2.90;;
62554;SDS011;48610;52.144;8.624;2023-05-31T12:00:51;9.40;;;3.17;;
62554;SDS011;48610;52.144;8.624;2023-05-31T12:04:00;8.18;;;3.08;;
62554;SDS011;48610;52.144;8.624;2023-05-31T12:07:01;7.90;;;3.45;;
62554;SDS011;48610;52.144;8.624;2023-05-31T12:10:04;8.52;;;3.05;;
62554;SDS011;48610;52.144;8.624;2023-05-31T12:13:05;6.20;;;2.90;;
62554;SDS011;48610;52.144;8.624;2023-05-31T12:16:06;9.98;;;3.60;;
62554;SDS011;48610;52.144;8.624;2023-05-31T12:19:12;7.70;;;2.72;;
62554;SDS011;48610;52.144;8.624;2023-05-31T12:22:13;11.32;;;3.10;;
62554;SDS011;48610;52.144;8.624;2023-05-31T12:25:14;6.43;;;3.13;;
62554;SDS011;48610;52.144;8.624;2023-05-31T12:28:18;7.63;;;3.03;;
62554;SDS011;48610;52.144;8.624;2023-05-31T12:31:23;5.60;;;2.22;;
62554;SDS011;48610;52.144;8.624;2023-05-31T12:34:24;6.82;;;2.90;;
62554;SDS011;48610;52.144;8.624;2023-05-31T12:37:26;9.45;;;3.10;;
62554;SDS011;48610;52.144;8.624;2023-05-31T12:40:27;6.15;;;3.00;;
62554;SDS011;48610;52.144;8.624;2023-05-31T12:43:28;5.38;;;2.80;;
62554;SDS011;48610;52.144;8.624;2023-05-31T12:46:39;6.65;;;3.00;;
62554;SDS011;48610;52.144;8.624;2023-05-31T12:49:41;6.22;;;2.78;;
62554;SDS011;48610;52.144;8.624;2023-05-31T12:52:53;6.43;;;2.72;;
62554;SDS011;48610;52.144;8.624;2023-05-31T12:55:55;26.63;;;3.63;;
62554;SDS011;48610;52.144;8.624;2023-05-31T12:58:56;11.32;;;3.10;;
62554;SDS011;48610;52.144;8.624;2023-05-31T13:01:58;5.82;;;3.00;;
62554;SDS011;48610;52.144;8.624;2023-05-31T13:04:59;6.65;;;2.95;;
62554;SDS011;48610;52.144;8.624;2023-05-31T13:08:00;10.10;;;3.15;;
62554;SDS011;48610;52.144;8.624;2023-05-31T13:11:00;9.38;;;3.05;;
62554;SDS011;48610;52.144;8.624;2023-05-31T13:14:01;6.80;;;3.10;;
62554;SDS011;48610;52.144;8.624;2023-05-31T13:17:03;11.98;;;3.25;;
62554;SDS011;48610;52.144;8.624;2023-05-31T13:20:04;6.75;;;2.60;;
62554;SDS011;48610;52.144;8.624;2023-05-31T13:23:07;7.72;;;3.40;;
62554;SDS011;48610;52.144;8.624;2023-05-31T13:26:08;6.10;;;2.88;;
62554;SDS011;48610;52.144;8.624;2023-05-31T13:29:08;6.72;;;2.80;;
62554;SDS011;48610;52.144;8.624;2023-05-31T13:32:09;5.75;;;2.83;;
62554;SDS011;48610;52.144;8.624;2023-05-31T13:35:10;9.52;;;3.00;;
62554;SDS011;48610;52.144;8.624;2023-05-31T13:38:12;10.30;;;3.45;;
62554;SDS011;48610;52.144;8.624;2023-05-31T13:41:14;6.60;;;2.80;;
62554;SDS011;48610;52.144;8.624;2023-05-31T13:44:14;5.93;;;3.00;;
62554;SDS011;48610;52.144;8.624;2023-05-31T13:47:16;11.18;;;3.10;;
62554;SDS011;48610;52.144;8.624;2023-05-31T13:50:16;9.00;;;2.88;;
62554;SDS011;48610;52.144;8.624;2023-05-31T13:53:20;10.52;;;3.22;;
62554;SDS011;48610;52.144;8.624;2023-05-31T13:56:21;8.85;;;3.10;;
62554;SDS011;48610;52.144;8.624;2023-05-31T13:59:22;6.75;;;3.08;;
62554;SDS011;48610;52.144;8.624;2023-05-31T14:02:23;5.05;;;2.80;;
62554;SDS011;48610;52.144;8.624;2023-05-31T14:05:23;8.02;;;2.95;;
62554;SDS011;48610;52.144;8.624;2023-05-31T14:08:26;4.38;;;2.60;;
62554;SDS011;48610;52.144;8.624;2023-05-31T14:11:27;5.88;;;3.10;;
62554;SDS011;48610;52.144;8.624;2023-05-31T14:14:27;6.78;;;2.78;;
62554;SDS011;48610;52.144;8.624;2023-05-31T14:17:28;8.00;;;3.00;;
62554;SDS011;48610;52.144;8.624;2023-05-31T14:20:29;9.05;;;2.97;;
62554;SDS011;48610;52.144;8.624;2023-05-31T14:23:29;6.35;;;2.72;;
62554;SDS011;48610;52.144;8.624;2023-05-31T14:26:30;5.53;;;2.70;;
62554;SDS011;48610;52.144;8.624;2023-05-31T14:29:30;6.30;;;3.22;;
62554;SDS011;48610;52.144;8.624;2023-05-31T14:32:31;8.15;;;2.55;;
62554;SDS011;48610;52.144;8.624;2023-05-31T14:35:32;7.10;;;2.83;;
62554;SDS011;48610;52.144;8.624;2023-05-31T14:38:32;5.63;;;2.97;;
62554;SDS011;48610;52.144;8.624;2023-05-31T14:41:33;5.90;;;2.92;;
62554;SDS011;48610;52.144;8.624;2023-05-31T14:44:33;5.47;;;2.83;;
62554;SDS011;48610;52.144;8.624;2023-05-31T14:47:36;8.30;;;3.20;;
62554;SDS011;48610;52.144;8.624;2023-05-31T14:50:37;6.70;;;2.88;;
62554;SDS011;48610;52.144;8.624;2023-05-31T14:53:38;7.50;;;3.30;;
62554;SDS011;48610;52.144;8.624;2023-05-31T14:56:38;6.43;;;3.40;;
62554;SDS011;48610;52.144;8.624;2023-05-31T14:59:39;8.45;;;2.90;;
62554;SDS011;48610;52.144;8.624;2023-05-31T15:02:40;9.38;;;3.53;;
62554;SDS011;48610;52.144;8.624;2023-05-31T15:05:40;5.78;;;2.90;;
62554;SDS011;48610;52.144;8.624;2023-05-31T15:08:41;5.22;;;2.90;;
62554;SDS011;48610;52.144;8.624;2023-05-31T15:11:42;3.95;;;2.60;;
62554;SDS011;48610;52.144;8.624;2023-05-31T15:14:42;6.18;;;2.70;;
62554;SDS011;48610;52.144;8.624;2023-05-31T15:17:43;5.57;;;2.90;;
62554;SDS011;48610;52.144;8.624;2023-05-31T15:20:46;7.00;;;2.80;;
62554;SDS011;48610;52.144;8.624;2023-05-31T15:23:47;5.10;;;2.72;;
62554;SDS011;48610;52.144;8.624;2023-05-31T15:26:47;6.80;;;3.08;;
62554;SDS011;48610;52.144;8.624;2023-05-31T15:29:48;9.35;;;3.08;;
62554;SDS011;48610;52.144;8.624;2023-05-31T15:32:48;9.55;;;2.90;;
62554;SDS011;48610;52.144;8.624;2023-05-31T15:35:49;6.75;;;2.90;;
62554;SDS011;48610;52.144;8.624;2023-05-31T15:38:49;7.45;;;3.08;;
62554;SDS011;48610;52.144;8.624;2023-05-31T15:41:50;6.03;;;2.88;;
62554;SDS011;48610;52.144;8.624;2023-05-31T15:44:51;6.40;;;2.72;;
62554;SDS011;48610;52.144;8.624;2023-05-31T15:47:51;10.05;;;3.05;;
62554;SDS011;48610;52.144;8.624;2023-05-31T15:50:53;3.55;;;2.67;;
62554;SDS011;48610;52.144;8.624;2023-05-31T15:53:54;8.63;;;4.43;;
62554;SDS011;48610;52.144;8.624;2023-05-31T15:56:55;8.93;;;4.00;;
62554;SDS011;48610;52.144;8.624;2023-05-31T15:59:55;4.55;;;2.67;;
62554;SDS011;48610;52.144;8.624;2023-05-31T16:02:56;7.03;;;3.63;;
62554;SDS011;48610;52.144;8.624;2023-05-31T16:05:56;9.98;;;4.88;;
62554;SDS011;48610;52.144;8.624;2023-05-31T16:08:57;16.73;;;9.73;;
62554;SDS011;48610;52.144;8.624;2023-05-31T16:11:57;9.55;;;4.53;;
62554;SDS011;48610;52.144;8.624;2023-05-31T16:14:58;62.33;;;33.22;;
62554;SDS011;48610;52.144;8.624;2023-05-31T16:17:59;10.23;;;4.57;;
62554;SDS011;48610;52.144;8.624;2023-05-31T16:21:00;14.80;;;4.60;;
62554;SDS011;48610;52.144;8.624;2023-05-31T16:24:00;7.93;;;3.90;;
62554;SDS011;48610;52.144;8.624;2023-05-31T16:27:01;7.53;;;2.72;;
62554;SDS011;48610;52.144;8.624;2023-05-31T16:30:03;5.60;;;2.67;;
62554;SDS011;48610;52.144;8.624;2023-05-31T16:33:04;7.25;;;3.22;;
62554;SDS011;48610;52.144;8.624;2023-05-31T16:36:05;7.40;;;3.60;;
62554;SDS011;48610;52.144;8.624;2023-05-31T16:39:06;6.20;;;2.83;;
62554;SDS011;48610;52.144;8.624;2023-05-31T16:42:07;5.32;;;2.78;;
62554;SDS011;48610;52.144;8.624;2023-05-31T16:45:08;5.78;;;3.15;;
62554;SDS011;48610;52.144;8.624;2023-05-31T16:48:10;10.02;;;3.22;;
62554;SDS011;48610;52.144;8.624;2023-05-31T16:51:11;10.73;;;3.10;;
62554;SDS011;48610;52.144;8.624;2023-05-31T16:54:11;7.93;;;3.20;;
62554;SDS011;48610;52.144;8.624;2023-05-31T16:57:12;12.60;;;3.47;;
62554;SDS011;48610;52.144;8.624;2023-05-31T17:00:13;11.32;;;3.25;;
62554;SDS011;48610;52.144;8.624;2023-05-31T17:03:14;11.18;;;2.75;;
62554;SDS011;48610;52.144;8.624;2023-05-31T17:06:14;7.07;;;2.95;;
62554;SDS011;48610;52.144;8.624;2023-05-31T17:09:15;6.22;;;3.40;;
62554;SDS011;48610;52.144;8.624;2023-05-31T17:12:16;10.20;;;3.22;;
62554;SDS011;48610;52.144;8.624;2023-05-31T17:15:16;10.43;;;3.78;;
62554;SDS011;48610;52.144;8.624;2023-05-31T17:18:17;8.23;;;3.10;;
62554;SDS011;48610;52.144;8.624;2023-05-31T17:21:17;12.55;;;2.88;;
62554;SDS011;48610;52.144;8.624;2023-05-31T17:24:18;5.75;;;2.58;;
62554;SDS011;48610;52.144;8.624;2023-05-31T17:27:18;9.23;;;3.30;;
62554;SDS011;48610;52.144;8.624;2023-05-31T17:30:19;10.32;;;3.13;;
62554;SDS011;48610;52.144;8.624;2023-05-31T17:33:26;7.18;;;3.17;;
62554;SDS011;48610;52.144;8.624;2023-05-31T17:36:26;9.27;;;3.25;;
62554;SDS011;48610;52.144;8.624;2023-05-31T17:39:27;8.75;;;3.40;;
62554;SDS011;48610;52.144;8.624;2023-05-31T17:42:27;6.95;;;2.80;;
62554;SDS011;48610;52.144;8.624;2023-05-31T17:45:28;8.70;;;2.92;;
62554;SDS011;48610;52.144;8.624;2023-05-31T17:48:28;4.10;;;2.83;;
62554;SDS011;48610;52.144;8.624;2023-05-31T17:51:30;9.55;;;3.15;;
62554;SDS011;48610;52.144;8.624;2023-05-31T17:54:30;10.38;;;3.78;;
62554;SDS011;48610;52.144;8.624;2023-05-31T17:57:31;9.05;;;3.15;;
62554;SDS011;48610;52.144;8.624;2023-05-31T18:00:32;7.85;;;3.40;;
62554;SDS011;48610;52.144;8.624;2023-05-31T18:03:33;13.50;;;3.58;;
62554;SDS011;48610;52.144;8.624;2023-05-31T18:06:33;6.63;;;2.88;;
62554;SDS011;48610;52.144;8.624;2023-05-31T18:09:36;16.33;;;3.25;;
62554;SDS011;48610;52.144;8.624;2023-05-31T18:12:37;7.00;;;3.22;;
62554;SDS011;48610;52.144;8.624;2023-05-31T18:15:37;7.93;;;2.80;;
62554;SDS011;48610;52.144;8.624;2023-05-31T18:18:38;8.93;;;3.17;;
62554;SDS011;48610;52.144;8.624;2023-05-31T18:21:38;7.30;;;2.90;;
62554;SDS011;48610;52.144;8.624;2023-05-31T18:24:39;11.38;;;3.10;;
62554;SDS011;48610;52.144;8.624;2023-05-31T18:27:39;10.57;;;2.65;;
62554;SDS011;48610;52.144;8.624;2023-05-31T18:30:42;6.80;;;3.00;;
62554;SDS011;48610;52.144;8.624;2023-05-31T18:33:42;7.63;;;2.80;;
62554;SDS011;48610;52.144;8.624;2023-05-31T18:36:43;10.02;;;3.03;;